createdAt,value
2023-04-13T00:00:05.189Z,3.75
2023-04-13T00:02:22.617Z,3.82
2023-04-13T00:04:39.879Z,3.83
2023-04-13T00:06:56.864Z,3.86
2023-04-13T00:09:14.111Z,3.82
2023-04-13T00:11:31.443Z,3.83
2023-04-13T00:13:48.570Z,3.82
2023-04-13T00:16:06.467Z,3.78
2023-04-13T00:18:23.516Z,3.75
2023-04-13T00:20:40.456Z,3.76
2023-04-13T00:22:57.387Z,3.77
2023-04-13T00:25:14.492Z,3.78
2023-04-13T00:27:31.513Z,3.78
2023-04-13T00:29:48.803Z,3.84
2023-04-13T00:32:06.091Z,3.86
2023-04-13T00:34:23.020Z,3.91
2023-04-13T00:36:40.301Z,3.93
2023-04-13T00:38:57.622Z,3.97
2023-04-13T00:41:14.547Z,4.00
2023-04-13T00:43:31.573Z,3.98
2023-04-13T00:45:48.762Z,4.09
2023-04-13T00:48:05.953Z,4.18
2023-04-13T00:50:24.056Z,4.31
2023-04-13T00:52:41.270Z,4.43
2023-04-13T00:54:58.583Z,4.48
2023-04-13T00:57:15.683Z,4.44
2023-04-13T00:59:32.898Z,4.46
2023-04-13T01:01:50.002Z,4.51
2023-04-13T01:04:07.397Z,4.49
2023-04-13T01:06:24.737Z,4.67
2023-04-13T01:08:41.989Z,4.86
2023-04-13T01:11:00.334Z,4.90
2023-04-13T01:13:17.358Z,4.92
2023-04-13T01:15:34.616Z,4.98
2023-04-13T01:17:52.692Z,4.99
2023-04-13T01:20:09.944Z,5.03
2023-04-13T01:22:27.397Z,5.08
2023-04-13T01:24:46.397Z,5.25
2023-04-13T01:27:03.537Z,5.42
2023-04-13T01:29:20.879Z,5.39
2023-04-13T01:31:38.153Z,5.40
2023-04-13T01:33:55.370Z,5.43
2023-04-13T01:36:13.242Z,5.52
2023-04-13T01:38:30.539Z,5.60
2023-04-13T01:40:47.482Z,5.58
2023-04-13T01:43:04.528Z,5.61
2023-04-13T01:45:21.565Z,5.66
2023-04-13T01:47:39.012Z,5.78
2023-04-13T01:49:56.339Z,5.86
2023-04-13T01:52:13.635Z,5.89
2023-04-13T01:54:30.496Z,5.86
2023-04-13T01:56:47.810Z,5.95
2023-04-13T01:59:05.143Z,5.96
2023-04-13T02:01:22.444Z,5.90
2023-04-13T02:03:39.511Z,5.84
2023-04-13T02:05:56.839Z,5.82
2023-04-13T02:08:14.107Z,5.87
2023-04-13T02:10:31.328Z,5.90
2023-04-13T02:12:48.348Z,5.88
2023-04-13T02:15:05.277Z,5.86
2023-04-13T02:17:23.680Z,5.84
2023-04-13T02:19:40.622Z,5.82
2023-04-13T02:21:57.913Z,5.82
2023-04-13T02:24:15.832Z,5.82
2023-04-13T02:26:33.784Z,5.81
2023-04-13T02:28:50.788Z,5.79
2023-04-13T02:31:08.040Z,5.76
2023-04-13T02:33:25.147Z,5.75
2023-04-13T02:35:42.189Z,5.74
2023-04-13T02:37:59.100Z,5.73
2023-04-13T02:40:15.985Z,5.75
2023-04-13T02:42:33.266Z,5.77
2023-04-13T02:44:50.539Z,5.77
2023-04-13T02:47:07.561Z,5.78
2023-04-13T02:49:24.611Z,5.86
2023-04-13T02:51:41.656Z,5.90
2023-04-13T02:53:59.080Z,6.04
2023-04-13T02:56:16.194Z,6.04
2023-04-13T02:58:33.484Z,6.08
2023-04-13T03:00:50.871Z,6.10
2023-04-13T03:03:07.881Z,6.17
2023-04-13T03:05:24.872Z,6.20
2023-04-13T03:07:42.172Z,6.23
2023-04-13T03:09:59.240Z,6.24
2023-04-13T03:12:16.554Z,6.26
2023-04-13T03:14:33.585Z,6.29
2023-04-13T03:16:50.868Z,6.29
2023-04-13T03:19:08.993Z,6.34
2023-04-13T03:21:26.128Z,6.35
2023-04-13T03:23:43.423Z,6.35
2023-04-13T03:26:00.703Z,6.37
2023-04-13T03:28:17.986Z,6.37
2023-04-13T03:30:36.120Z,6.36
2023-04-13T03:32:53.210Z,6.40
2023-04-13T03:35:10.496Z,6.46
2023-04-13T03:37:27.370Z,6.53
2023-04-13T03:39:44.589Z,6.55
2023-04-13T03:42:02.636Z,6.56
2023-04-13T03:44:19.544Z,6.63
2023-04-13T03:46:36.800Z,6.62
2023-04-13T03:48:54.025Z,6.60
2023-04-13T03:51:11.072Z,6.61
2023-04-13T03:53:27.968Z,6.63
2023-04-13T03:55:45.033Z,6.71
2023-04-13T03:58:02.056Z,6.81
2023-04-13T04:00:19.056Z,6.77
2023-04-13T04:02:36.428Z,6.76
2023-04-13T04:04:53.763Z,6.72
2023-04-13T04:07:11.774Z,6.75
2023-04-13T04:09:28.711Z,6.73
2023-04-13T04:11:45.659Z,6.78
2023-04-13T04:14:02.930Z,6.81
2023-04-13T04:16:21.042Z,6.89
2023-04-13T04:18:38.221Z,6.84
2023-04-13T04:20:56.590Z,6.79
2023-04-13T04:23:13.555Z,6.90
2023-04-13T04:25:30.478Z,6.95
2023-04-13T04:27:47.734Z,6.97
2023-04-13T04:30:04.700Z,7.07
2023-04-13T04:32:21.802Z,7.01
2023-04-13T04:34:38.798Z,7.03
2023-04-13T04:36:57.037Z,7.01
2023-04-13T04:39:15.262Z,6.98
2023-04-13T04:41:32.258Z,7.00
2023-04-13T04:43:49.220Z,7.04
2023-04-13T04:46:06.369Z,7.05
2023-04-13T04:48:23.684Z,6.99
2023-04-13T04:50:41.948Z,6.94
2023-04-13T04:52:59.284Z,6.97
2023-04-13T04:55:16.302Z,6.88
2023-04-13T04:57:33.476Z,6.83
2023-04-13T04:59:50.723Z,6.80
2023-04-13T05:02:07.783Z,6.81
2023-04-13T05:04:24.668Z,6.83
2023-04-13T05:06:41.803Z,6.78
2023-04-13T05:08:59.370Z,6.79
2023-04-13T05:11:16.562Z,6.80
2023-04-13T05:13:33.490Z,6.86
2023-04-13T05:15:50.808Z,6.80
2023-04-13T05:18:07.873Z,6.78
2023-04-13T05:20:25.956Z,6.76
2023-04-13T05:22:42.982Z,6.79
2023-04-13T05:24:59.914Z,6.84
2023-04-13T05:27:17.127Z,6.87
2023-04-13T05:29:34.138Z,6.90
2023-04-13T05:31:51.181Z,6.90
2023-04-13T05:34:08.212Z,6.92
2023-04-13T05:36:25.488Z,7.02
2023-04-13T05:38:42.798Z,7.06
2023-04-13T05:41:00.059Z,6.99
2023-04-13T05:43:17.337Z,6.99
2023-04-13T05:45:34.297Z,7.02
2023-04-13T05:47:51.616Z,7.00
2023-04-13T05:50:09.668Z,7.00
2023-04-13T05:52:26.984Z,7.01
2023-04-13T05:54:43.873Z,7.04
2023-04-13T05:57:00.839Z,7.11
2023-04-13T05:59:17.805Z,7.10
2023-04-13T06:01:34.844Z,7.12
2023-04-13T06:03:52.078Z,7.17
2023-04-13T06:06:09.546Z,7.17
2023-04-13T06:08:28.856Z,7.15
2023-04-13T06:10:46.193Z,7.13
2023-04-13T06:13:03.384Z,7.12
2023-04-13T06:15:20.437Z,7.12
2023-04-13T06:17:37.400Z,7.08
2023-04-13T06:19:54.742Z,7.06
2023-04-13T06:22:12.042Z,7.09
2023-04-13T06:24:29.342Z,7.13
2023-04-13T06:26:46.571Z,7.16
2023-04-13T06:29:03.604Z,7.14
2023-04-13T06:31:21.598Z,7.18
2023-04-13T06:33:38.961Z,7.22
2023-04-13T06:35:56.283Z,7.32
2023-04-13T06:38:13.578Z,7.38
2023-04-13T06:40:31.045Z,7.49
2023-04-13T06:42:48.281Z,7.53
2023-04-13T06:45:05.169Z,7.56
2023-04-13T06:47:22.447Z,7.58
2023-04-13T06:49:39.689Z,7.63
2023-04-13T06:51:56.793Z,7.61
2023-04-13T06:54:14.029Z,7.59
2023-04-13T06:56:32.845Z,7.59
2023-04-13T06:58:49.883Z,7.60
2023-04-13T07:01:07.128Z,7.68
2023-04-13T07:03:24.436Z,7.71
2023-04-13T07:05:41.571Z,7.69
2023-04-13T07:07:58.812Z,7.75
2023-04-13T07:10:15.771Z,7.79
2023-04-13T07:12:33.993Z,7.82
2023-04-13T07:14:51.226Z,7.85
2023-04-13T07:17:08.827Z,7.94
2023-04-13T07:19:26.948Z,8.09
2023-04-13T07:21:44.919Z,8.15
2023-04-13T07:24:01.894Z,8.22
2023-04-13T07:26:18.913Z,8.30
2023-04-13T07:28:36.211Z,8.39
2023-04-13T07:30:53.181Z,8.52
2023-04-13T07:33:10.459Z,8.58
2023-04-13T07:35:27.475Z,8.64
2023-04-13T07:37:44.412Z,8.74
2023-04-13T07:40:01.488Z,8.70
2023-04-13T07:42:18.499Z,8.65
2023-04-13T07:44:35.553Z,8.57
2023-04-13T07:46:52.626Z,8.60
2023-04-13T07:49:10.679Z,8.61
2023-04-13T07:51:27.964Z,8.61
2023-04-13T07:53:45.240Z,8.64
2023-04-13T07:56:02.635Z,8.64
2023-04-13T07:58:20.842Z,8.64
2023-04-13T08:00:37.857Z,8.66
2023-04-13T08:02:55.053Z,8.64
2023-04-13T08:05:13.722Z,8.66
2023-04-13T08:07:31.049Z,8.69
2023-04-13T08:09:49.086Z,8.64
2023-04-13T08:12:05.962Z,8.64
2023-04-13T08:14:23.259Z,8.67
2023-04-13T08:16:40.653Z,8.74
2023-04-13T08:18:57.872Z,8.80
2023-04-13T08:21:15.356Z,8.78
2023-04-13T08:23:32.604Z,8.90
2023-04-13T08:25:49.600Z,8.93
2023-04-13T08:28:06.482Z,8.98
2023-04-13T08:30:23.498Z,9.08
2023-04-13T08:32:40.652Z,9.17
2023-04-13T08:34:58.888Z,9.24
2023-04-13T08:37:16.119Z,9.29
2023-04-13T08:39:33.110Z,9.33
2023-04-13T08:41:50.167Z,9.37
2023-04-13T08:44:07.150Z,9.27
2023-04-13T08:46:24.229Z,9.36
2023-04-13T08:48:52.798Z,9.59
2023-04-13T08:51:10.831Z,9.75
2023-04-13T08:53:27.856Z,9.86
2023-04-13T08:55:44.832Z,9.84
2023-04-13T08:58:01.861Z,9.83
2023-04-13T09:00:19.031Z,9.97
2023-04-13T09:02:36.411Z,10.07
2023-04-13T09:04:53.829Z,10.09
2023-04-13T09:07:10.776Z,10.11
2023-04-13T09:09:27.830Z,10.20
2023-04-13T09:11:44.750Z,10.17
2023-04-13T09:14:01.690Z,10.04
2023-04-13T09:16:18.718Z,9.85
2023-04-13T09:18:36.064Z,9.75
2023-04-13T09:20:53.266Z,9.63
2023-04-13T09:23:10.167Z,9.56
2023-04-13T09:25:27.122Z,9.54
2023-04-13T09:27:44.230Z,9.69
2023-04-13T09:30:01.472Z,9.78
2023-04-13T09:32:18.688Z,9.87
2023-04-13T09:34:35.697Z,9.94
2023-04-13T09:36:54.613Z,10.07
2023-04-13T09:39:12.476Z,10.09
2023-04-13T09:41:29.714Z,10.24
2023-04-13T09:43:47.066Z,10.30
2023-04-13T09:46:04.405Z,10.37
2023-04-13T09:48:21.444Z,10.38
2023-04-13T09:50:38.428Z,10.38
2023-04-13T09:52:56.720Z,10.47
2023-04-13T09:55:13.807Z,10.47
2023-04-13T09:57:31.049Z,10.40
2023-04-13T09:59:49.575Z,10.39
2023-04-13T10:02:06.659Z,10.28
2023-04-13T10:04:24.126Z,10.29
2023-04-13T10:06:41.435Z,10.30
2023-04-13T10:08:58.430Z,10.40
2023-04-13T10:11:15.627Z,10.46
2023-04-13T10:13:32.623Z,10.58
2023-04-13T10:15:49.959Z,10.85
2023-04-13T10:18:07.576Z,11.35
2023-04-13T10:20:25.716Z,11.50
2023-04-13T10:22:44.335Z,11.57
2023-04-13T10:25:01.472Z,11.65
2023-04-13T10:27:18.630Z,11.77
2023-04-13T10:29:35.660Z,11.93
2023-04-13T10:31:52.795Z,11.73
2023-04-13T10:34:09.724Z,11.75
2023-04-13T10:36:26.692Z,11.66
2023-04-13T10:38:44.853Z,11.55
2023-04-13T10:41:01.943Z,11.63
2023-04-13T10:43:19.256Z,11.58
2023-04-13T10:45:36.256Z,11.55
2023-04-13T10:47:53.516Z,11.43
2023-04-13T10:50:10.538Z,11.07
2023-04-13T10:52:28.460Z,10.52
2023-04-13T10:54:45.634Z,10.31
2023-04-13T10:57:03.535Z,10.15
2023-04-13T10:59:20.570Z,10.15
2023-04-13T11:01:37.546Z,10.38
2023-04-13T11:04:04.524Z,10.65
2023-04-13T11:06:23.803Z,10.92
2023-04-13T11:08:40.867Z,11.31
2023-04-13T11:10:57.878Z,11.72
2023-04-13T11:13:15.022Z,11.99
2023-04-13T11:15:32.899Z,12.30
2023-04-13T11:17:49.903Z,12.67
2023-04-13T11:20:06.829Z,12.98
2023-04-13T11:22:23.958Z,13.15
2023-04-13T11:24:41.231Z,13.06
2023-04-13T11:26:58.106Z,13.29
2023-04-13T11:29:15.370Z,13.14
2023-04-13T11:31:32.305Z,12.85
2023-04-13T11:33:49.409Z,12.40
2023-04-13T11:36:06.807Z,12.15
2023-04-13T11:38:23.699Z,11.73
2023-04-13T11:40:40.647Z,11.48
2023-04-13T11:42:58.801Z,11.18
2023-04-13T11:45:18.519Z,11.19
2023-04-13T11:47:36.864Z,11.43
2023-04-13T11:49:54.183Z,11.68
2023-04-13T11:52:11.120Z,11.87
2023-04-13T11:54:28.441Z,12.18
2023-04-13T11:56:47.108Z,12.30
2023-04-13T11:59:05.436Z,12.50
2023-04-13T12:01:26.200Z,12.52
2023-04-13T12:03:59.067Z,12.80
2023-04-13T12:06:21.500Z,13.02
2023-04-13T12:11:15.460Z,13.41
2023-04-13T12:16:06.230Z,14.08
2023-04-13T12:18:34.279Z,14.27
2023-04-13T12:20:53.888Z,14.13
2023-04-13T12:27:50.341Z,14.46
2023-04-13T12:30:07.373Z,14.75
2023-04-13T12:32:24.653Z,14.77
2023-04-13T12:34:42.214Z,14.88
2023-04-13T12:36:59.173Z,15.29
2023-04-13T12:39:16.225Z,15.47
2023-04-13T12:41:33.380Z,15.17
2023-04-13T12:43:51.297Z,15.00
2023-04-13T12:46:08.682Z,14.75
2023-04-13T12:48:26.014Z,14.79
2023-04-13T12:50:44.258Z,14.43
2023-04-13T12:53:01.141Z,14.14
2023-04-13T12:55:18.057Z,14.01
2023-04-13T12:57:35.348Z,13.99
2023-04-13T12:59:52.683Z,14.01
2023-04-13T13:02:10.068Z,13.83
2023-04-13T13:04:27.170Z,13.92
2023-04-13T13:06:44.473Z,13.85
2023-04-13T13:09:02.033Z,13.85
2023-04-13T13:11:19.092Z,13.95
2023-04-13T13:13:42.324Z,14.08
2023-04-13T13:15:59.636Z,13.98
2023-04-13T13:18:17.655Z,13.95
2023-04-13T13:20:35.093Z,14.26
2023-04-13T13:22:52.173Z,14.62
2023-04-13T13:25:09.067Z,14.86
2023-04-13T13:29:46.972Z,15.09
2023-04-13T13:32:04.060Z,15.06
2023-04-13T13:34:21.026Z,15.21
2023-04-13T13:36:38.310Z,14.89
2023-04-13T13:38:55.502Z,15.10
2023-04-13T13:41:12.755Z,15.36
2023-04-13T13:43:30.791Z,15.34
2023-04-13T13:45:48.182Z,15.57
2023-04-13T13:48:05.156Z,15.57
2023-04-13T13:50:22.296Z,15.46
2023-04-13T13:52:45.888Z,15.69
2023-04-13T13:55:12.723Z,15.53
2023-04-13T13:57:29.800Z,15.52
2023-04-13T13:59:49.373Z,15.47
2023-04-13T14:02:06.594Z,15.33
2023-04-13T14:04:24.015Z,15.24
2023-04-13T14:06:41.111Z,15.02
2023-04-13T14:08:58.372Z,14.91
2023-04-13T14:11:15.791Z,14.59
2023-04-13T14:13:32.892Z,14.54
2023-04-13T14:15:49.996Z,14.27
2023-04-13T14:18:11.224Z,14.09
2023-04-13T14:20:28.870Z,13.92
2023-04-13T14:22:45.981Z,13.87
2023-04-13T14:25:02.988Z,13.64
2023-04-13T14:27:19.900Z,13.55
2023-04-13T14:29:36.968Z,13.50
2023-04-13T14:31:54.245Z,13.50
2023-04-13T14:34:11.461Z,13.39
2023-04-13T14:36:28.735Z,13.43
2023-04-13T14:38:46.062Z,13.34
2023-04-13T14:41:03.131Z,13.32
2023-04-13T14:43:21.232Z,13.39
2023-04-13T14:45:38.301Z,13.43
2023-04-13T14:47:55.355Z,13.68
2023-04-13T14:50:12.570Z,13.83
2023-04-13T14:52:29.870Z,13.80
2023-04-13T14:54:46.944Z,13.99
2023-04-13T14:57:03.942Z,14.08
2023-04-13T14:59:21.190Z,14.34
2023-04-13T15:01:38.500Z,14.59
2023-04-13T15:03:56.621Z,14.52
2023-04-13T15:06:15.079Z,14.48
2023-04-13T15:08:32.074Z,14.30
2023-04-13T15:10:50.337Z,14.08
2023-04-13T15:13:08.456Z,14.11
2023-04-13T15:15:25.541Z,14.13
2023-04-13T15:17:42.791Z,14.23
2023-04-13T15:19:59.779Z,14.65
2023-04-13T15:22:17.047Z,14.75
2023-04-13T15:24:34.297Z,15.06
2023-04-13T15:26:51.441Z,15.12
2023-04-13T15:29:08.752Z,15.28
2023-04-13T15:31:25.843Z,15.11
2023-04-13T15:33:43.100Z,14.95
2023-04-13T15:36:00.203Z,14.84
2023-04-13T15:38:17.154Z,14.61
2023-04-13T15:40:34.445Z,14.52
2023-04-13T15:42:51.491Z,14.62
2023-04-13T15:45:08.468Z,14.38
2023-04-13T15:47:25.820Z,14.45
2023-04-13T15:49:42.867Z,14.41
2023-04-13T15:51:59.953Z,14.59
2023-04-13T15:54:18.088Z,14.75
2023-04-13T15:56:35.020Z,14.98
2023-04-13T15:58:52.222Z,15.10
2023-04-13T16:01:09.388Z,15.02
2023-04-13T16:03:26.664Z,15.03
2023-04-13T16:05:43.902Z,15.13
2023-04-13T16:08:01.786Z,15.10
2023-04-13T16:10:18.833Z,15.32
2023-04-13T16:12:35.816Z,15.23
2023-04-13T16:14:52.744Z,15.28
2023-04-13T16:17:10.664Z,15.36
2023-04-13T16:19:27.601Z,15.41
2023-04-13T16:21:44.970Z,15.39
2023-04-13T16:24:02.063Z,15.36
2023-04-13T16:26:19.122Z,15.41
2023-04-13T16:28:36.373Z,15.40
2023-04-13T16:30:53.841Z,15.40
2023-04-13T16:33:10.850Z,15.37
2023-04-13T16:35:27.925Z,15.15
2023-04-13T16:37:45.996Z,15.19
2023-04-13T16:40:03.321Z,14.89
2023-04-13T16:42:20.362Z,14.69
2023-04-13T16:44:37.471Z,14.40
2023-04-13T16:46:54.449Z,14.12
2023-04-13T16:49:11.883Z,13.87
2023-04-13T16:51:30.144Z,13.70
2023-04-13T16:53:47.188Z,13.37
2023-04-13T16:56:04.481Z,13.16
2023-04-13T16:58:21.549Z,13.10
2023-04-13T17:00:39.517Z,12.89
2023-04-13T17:02:57.542Z,12.75
2023-04-13T17:05:14.935Z,12.69
2023-04-13T17:07:31.897Z,12.62
2023-04-13T17:09:50.089Z,12.50
2023-04-13T17:12:07.180Z,12.40
2023-04-13T17:14:24.223Z,12.31
2023-04-13T17:16:41.614Z,12.22
2023-04-13T17:18:59.943Z,12.08
2023-04-13T17:21:17.437Z,11.98
2023-04-13T17:23:34.428Z,11.90
2023-04-13T17:25:51.765Z,11.85
2023-04-13T17:28:09.119Z,11.79
2023-04-13T17:30:26.144Z,11.78
2023-04-13T17:32:43.246Z,11.80
2023-04-13T17:35:00.378Z,11.82
2023-04-13T17:37:17.396Z,11.82
2023-04-13T17:39:34.516Z,11.79
2023-04-13T17:41:51.546Z,11.81
2023-04-13T17:44:09.782Z,11.74
2023-04-13T17:46:27.185Z,11.73
2023-04-13T17:48:44.253Z,11.73
2023-04-13T17:51:01.334Z,11.60
2023-04-13T17:53:18.616Z,11.55
2023-04-13T17:55:35.662Z,11.42
2023-04-13T17:57:52.754Z,11.34
2023-04-13T18:00:10.030Z,11.25
2023-04-13T18:02:28.380Z,11.18
2023-04-13T18:04:45.393Z,11.11
2023-04-13T18:07:02.472Z,11.08
2023-04-13T18:09:19.767Z,10.88
2023-04-13T18:11:36.825Z,10.82
2023-04-13T18:13:53.861Z,10.71
2023-04-13T18:16:13.964Z,10.58
2023-04-13T18:18:31.735Z,10.40
2023-04-13T18:20:49.180Z,10.33
2023-04-13T18:23:06.505Z,10.26
2023-04-13T18:25:23.550Z,10.11
2023-04-13T18:27:41.819Z,10.03
2023-04-13T18:29:59.794Z,9.91
2023-04-13T18:32:16.879Z,9.74
2023-04-13T18:34:35.641Z,9.66
2023-04-13T18:36:53.097Z,9.62
2023-04-13T18:39:10.087Z,9.51
2023-04-13T18:41:28.371Z,9.41
2023-04-13T18:43:45.597Z,9.24
2023-04-13T18:46:02.663Z,9.19
2023-04-13T18:48:20.039Z,9.08
2023-04-13T18:50:37.599Z,8.95
2023-04-13T18:52:55.668Z,8.90
2023-04-13T18:55:12.893Z,8.88
2023-04-13T18:57:30.028Z,8.82
2023-04-13T18:59:47.367Z,8.75
2023-04-13T19:02:05.397Z,8.70
2023-04-13T19:04:22.574Z,8.65
2023-04-13T19:06:39.740Z,8.55
2023-04-13T19:08:57.053Z,8.50
2023-04-13T19:11:14.305Z,8.44
2023-04-13T19:13:31.317Z,8.36
2023-04-13T19:15:48.440Z,8.27
2023-04-13T19:18:05.460Z,8.22
2023-04-13T19:20:22.623Z,8.14
2023-04-13T19:22:39.935Z,8.06
2023-04-13T19:24:56.993Z,7.94
2023-04-13T19:27:14.035Z,7.86
2023-04-13T19:29:30.972Z,7.80
2023-04-13T19:31:49.339Z,7.76
2023-04-13T19:34:06.401Z,7.73
2023-04-13T19:36:25.889Z,7.72
2023-04-13T19:38:43.327Z,7.68
2023-04-13T19:41:00.205Z,7.62
2023-04-13T19:43:17.201Z,7.53
2023-04-13T19:45:34.222Z,7.44
2023-04-13T19:47:51.577Z,7.38
2023-04-13T19:50:09.849Z,7.32
2023-04-13T19:52:27.093Z,7.29
2023-04-13T19:54:44.242Z,7.26
2023-04-13T19:57:01.253Z,7.23
2023-04-13T19:59:19.532Z,7.16
2023-04-13T20:01:36.476Z,7.14
2023-04-13T20:03:53.606Z,7.09
2023-04-13T20:06:11.074Z,7.00
2023-04-13T20:08:29.287Z,6.96
2023-04-13T20:10:46.357Z,6.95
2023-04-13T20:13:04.345Z,6.84
2023-04-13T20:15:21.630Z,6.82
2023-04-13T20:17:38.698Z,6.76
2023-04-13T20:19:56.097Z,6.74
2023-04-13T20:22:13.140Z,6.70
2023-04-13T20:24:30.415Z,6.65
2023-04-13T20:26:47.718Z,6.69
2023-04-13T20:29:04.648Z,6.58
2023-04-13T20:31:21.767Z,6.51
2023-04-13T20:33:38.819Z,6.46
2023-04-13T20:35:55.849Z,6.39
2023-04-13T20:38:12.949Z,6.31
2023-04-13T20:40:31.186Z,6.22
2023-04-13T20:42:49.393Z,6.17
2023-04-13T20:45:07.612Z,6.13
2023-04-13T20:47:24.652Z,6.08
2023-04-13T20:49:41.893Z,6.02
2023-04-13T20:51:59.400Z,5.99
2023-04-13T20:54:16.425Z,5.93
2023-04-13T20:56:33.499Z,5.91
2023-04-13T20:58:50.730Z,5.86
2023-04-13T21:01:08.019Z,5.82
2023-04-13T21:03:25.481Z,5.76
2023-04-13T21:05:42.813Z,5.70
2023-04-13T21:08:00.136Z,5.62
2023-04-13T21:10:17.115Z,5.57
2023-04-13T21:12:34.447Z,5.50
2023-04-13T21:14:51.406Z,5.46
2023-04-13T21:17:08.504Z,5.42
2023-04-13T21:19:25.849Z,5.38
2023-04-13T21:21:43.128Z,5.36
2023-04-13T21:24:00.641Z,5.33
2023-04-13T21:26:18.049Z,5.27
2023-04-13T21:28:36.083Z,5.26
2023-04-13T21:30:53.196Z,5.23
2023-04-13T21:33:10.526Z,5.18
2023-04-13T21:35:27.632Z,5.16
2023-04-13T21:37:44.988Z,5.09
2023-04-13T21:40:02.292Z,5.11
2023-04-13T21:42:20.876Z,5.08
2023-04-13T21:44:39.524Z,5.09
2023-04-13T21:46:56.760Z,5.02
2023-04-13T21:49:13.733Z,4.93
2023-04-13T21:51:30.740Z,4.86
2023-04-13T21:53:47.985Z,4.81
2023-04-13T21:56:06.267Z,4.77
2023-04-13T21:58:23.576Z,4.77
2023-04-13T22:00:41.647Z,4.75
2023-04-13T22:02:58.784Z,4.71
2023-04-13T22:05:15.992Z,4.62
2023-04-13T22:07:42.479Z,4.56
2023-04-13T22:10:00.513Z,4.54
2023-04-13T22:12:17.575Z,4.52
2023-04-13T22:14:35.619Z,4.48
2023-04-13T22:16:52.571Z,4.40
2023-04-13T22:19:10.876Z,4.37
2023-04-13T22:21:27.946Z,4.35
2023-04-13T22:23:45.948Z,4.30
2023-04-13T22:26:03.191Z,4.27
2023-04-13T22:28:20.488Z,4.17
2023-04-13T22:30:37.506Z,4.14
2023-04-13T22:32:54.874Z,4.14
2023-04-13T22:35:11.846Z,4.18
2023-04-13T22:37:28.901Z,4.16
2023-04-13T22:39:46.174Z,4.10
2023-04-13T22:42:03.575Z,4.08
2023-04-13T22:44:20.891Z,4.06
2023-04-13T22:46:39.216Z,4.04
2023-04-13T22:48:56.559Z,4.01
2023-04-13T22:51:13.670Z,3.94
2023-04-13T22:53:31.746Z,3.90
2023-04-13T22:55:48.820Z,3.86
2023-04-13T22:58:06.068Z,3.79
2023-04-13T23:00:23.712Z,3.78
2023-04-13T23:02:42.168Z,3.78
2023-04-13T23:04:59.715Z,3.78
2023-04-13T23:07:16.934Z,3.75
2023-04-13T23:09:33.964Z,3.72
2023-04-13T23:11:51.271Z,3.68
2023-04-13T23:14:08.614Z,3.61
2023-04-13T23:16:25.631Z,3.54
2023-04-13T23:18:42.695Z,3.48
2023-04-13T23:21:00.292Z,3.50
2023-04-13T23:23:17.647Z,3.50
2023-04-13T23:25:34.674Z,3.50
2023-04-13T23:27:51.899Z,3.45
2023-04-13T23:30:08.814Z,3.44
2023-04-13T23:32:26.235Z,3.42
2023-04-13T23:34:43.299Z,3.43
2023-04-13T23:37:00.393Z,3.41
2023-04-13T23:39:17.293Z,3.34
2023-04-13T23:41:34.622Z,3.28
2023-04-13T23:43:51.651Z,3.24
2023-04-13T23:46:08.552Z,3.19
2023-04-13T23:48:25.618Z,3.17
2023-04-13T23:50:43.004Z,3.18
2023-04-13T23:53:00.062Z,3.21
2023-04-13T23:55:18.327Z,3.19
2023-04-13T23:57:35.280Z,3.16
2023-04-13T23:59:53.378Z,3.16
